createdAt,value
2019-02-18T00:00:22.964Z,78.11
2019-02-18T00:01:22.963Z,78.53
2019-02-18T00:02:22.946Z,78.42
2019-02-18T00:03:22.943Z,78.53
2019-02-18T00:04:22.933Z,78.42
2019-02-18T00:05:22.949Z,78.42
2019-02-18T00:06:22.910Z,78.11
2019-02-18T00:07:22.890Z,78.42
2019-02-18T00:08:22.884Z,78.74
2019-02-18T00:09:22.880Z,78.42
2019-02-18T00:10:22.889Z,78.42
2019-02-18T00:11:22.853Z,78.22
2019-02-18T00:12:22.843Z,78.01
2019-02-18T00:13:22.858Z,78.25
2019-02-18T00:14:22.821Z,78.25
2019-02-18T00:15:22.817Z,78.05
2019-02-18T00:16:22.820Z,78.15
2019-02-18T00:17:22.787Z,77.84
2019-02-18T00:18:22.782Z,78.05
2019-02-18T00:19:22.762Z,77.94
2019-02-18T00:20:22.754Z,77.84
2019-02-18T00:21:22.787Z,78.15
2019-02-18T00:22:22.744Z,78.46
2019-02-18T00:23:22.725Z,78.67
2019-02-18T00:24:22.732Z,78.67
2019-02-18T00:25:22.699Z,78.36
2019-02-18T00:26:22.727Z,78.56
2019-02-18T00:27:22.690Z,78.56
2019-02-18T00:28:22.694Z,78.46
2019-02-18T00:29:22.655Z,78.98
2019-02-18T00:30:22.642Z,78.56
2019-02-18T00:31:22.644Z,78.77
2019-02-18T00:32:22.643Z,78.88
2019-02-18T00:33:22.634Z,78.36
2019-02-18T00:34:22.600Z,78.56
2019-02-18T00:35:22.595Z,78.67
2019-02-18T00:36:22.630Z,78.46
2019-02-18T00:37:24.725Z,78.88
2019-02-18T00:38:22.569Z,78.67
2019-02-18T00:39:22.554Z,79.12
2019-02-18T00:40:22.544Z,78.91
2019-02-18T00:41:22.541Z,78.91
2019-02-18T00:42:22.551Z,78.91
2019-02-18T00:43:22.512Z,78.88
2019-02-18T00:44:22.510Z,78.81
2019-02-18T00:45:22.489Z,78.91
2019-02-18T00:46:22.484Z,79.02
2019-02-18T00:47:22.491Z,79.08
2019-02-18T00:48:22.531Z,79.33
2019-02-18T00:49:22.450Z,79.43
2019-02-18T00:50:22.450Z,79.33
2019-02-18T00:51:22.434Z,79.12
2019-02-18T00:52:22.410Z,78.81
2019-02-18T00:53:22.424Z,79.02
2019-02-18T00:54:22.389Z,79.22
2019-02-18T00:55:22.380Z,79.12
2019-02-18T00:56:22.387Z,79.22
2019-02-18T00:57:22.379Z,78.91
2019-02-18T00:58:22.347Z,78.91
2019-02-18T00:59:22.382Z,78.81
2019-02-18T01:00:22.327Z,79.02
2019-02-18T01:01:22.325Z,79.12
2019-02-18T01:02:22.309Z,79.33
2019-02-18T01:03:22.305Z,79.02
2019-02-18T01:04:22.283Z,78.70
2019-02-18T01:05:22.313Z,78.91
2019-02-18T01:06:22.270Z,78.85
2019-02-18T01:07:22.266Z,78.43
2019-02-18T01:08:22.253Z,78.53
2019-02-18T01:09:22.251Z,78.53
2019-02-18T01:10:22.230Z,78.74
2019-02-18T01:11:22.261Z,78.64
2019-02-18T01:12:22.206Z,78.33
2019-02-18T01:13:22.196Z,78.64
2019-02-18T01:14:22.194Z,78.74
2019-02-18T01:15:22.168Z,79.05
2019-02-18T01:16:22.189Z,79.57
2019-02-18T01:17:22.162Z,79.60
2019-02-18T01:18:22.145Z,79.81
2019-02-18T01:19:22.131Z,79.67
2019-02-18T01:20:22.127Z,79.88
2019-02-18T01:21:22.121Z,79.88
2019-02-18T01:22:22.130Z,79.50
2019-02-18T01:23:22.084Z,79.71
2019-02-18T01:24:22.085Z,79.60
2019-02-18T01:25:22.076Z,79.60
2019-02-18T01:26:22.071Z,79.50
2019-02-18T01:27:22.058Z,79.16
2019-02-18T01:28:22.078Z,78.99
2019-02-18T01:29:22.030Z,78.95
2019-02-18T01:30:22.017Z,78.99
2019-02-18T01:31:22.016Z,79.09
2019-02-18T01:32:22.018Z,79.40
2019-02-18T01:33:22.030Z,79.30
2019-02-18T01:34:21.973Z,79.40
2019-02-18T01:35:21.963Z,79.60
2019-02-18T01:36:23.148Z,79.91
2019-02-18T01:37:21.953Z,79.81
2019-02-18T01:38:21.950Z,79.60
2019-02-18T01:39:21.943Z,79.81
2019-02-18T01:40:21.912Z,79.85
2019-02-18T01:41:21.929Z,79.44
2019-02-18T01:42:21.893Z,79.74
2019-02-18T01:43:21.887Z,79.81
2019-02-18T01:44:21.892Z,79.95
2019-02-18T01:45:21.932Z,80.47
2019-02-18T01:46:21.846Z,80.05
2019-02-18T01:47:21.838Z,79.81
2019-02-18T01:48:21.818Z,79.60
2019-02-18T01:49:21.841Z,79.95
2019-02-18T01:50:21.813Z,80.12
2019-02-18T01:51:21.816Z,80.36
2019-02-18T01:52:21.790Z,80.02
2019-02-18T01:53:21.773Z,80.36
2019-02-18T01:54:21.766Z,80.26
2019-02-18T01:55:21.759Z,80.16
2019-02-18T01:56:21.752Z,80.33
2019-02-18T01:57:21.730Z,80.26
2019-02-18T01:58:21.716Z,80.05
2019-02-18T01:59:21.705Z,79.95
2019-02-18T02:00:21.718Z,79.95
2019-02-18T02:01:21.686Z,80.05
2019-02-18T02:02:21.693Z,79.95
2019-02-18T02:03:21.661Z,80.26
2019-02-18T02:04:21.671Z,80.26
2019-02-18T02:05:21.673Z,80.02
2019-02-18T02:06:21.635Z,79.74
2019-02-18T02:07:21.630Z,79.81
2019-02-18T02:08:21.628Z,79.44
2019-02-18T02:09:21.599Z,79.85
2019-02-18T02:10:21.587Z,79.95
2019-02-18T02:11:21.611Z,79.85
2019-02-18T02:12:21.599Z,79.85
2019-02-18T02:13:21.583Z,79.85
2019-02-18T02:14:21.567Z,79.74
2019-02-18T02:15:21.541Z,79.95
2019-02-18T02:16:21.545Z,79.85
2019-02-18T02:17:21.541Z,79.85
2019-02-18T02:18:21.517Z,79.74
2019-02-18T02:19:21.499Z,79.95
2019-02-18T02:20:21.498Z,80.09
2019-02-18T02:21:21.510Z,79.99
2019-02-18T02:22:21.455Z,79.95
2019-02-18T02:23:21.473Z,79.54
2019-02-18T02:24:21.453Z,79.78
2019-02-18T02:25:21.437Z,79.78
2019-02-18T02:26:21.418Z,79.99
2019-02-18T02:27:21.422Z,79.85
2019-02-18T02:28:21.440Z,79.78
2019-02-18T02:29:21.390Z,79.37
2019-02-18T02:30:21.386Z,79.68
2019-02-18T02:31:21.378Z,79.78
2019-02-18T02:32:21.359Z,79.58
2019-02-18T02:33:21.341Z,79.68
2019-02-18T02:34:21.364Z,80.09
2019-02-18T02:35:21.333Z,79.88
2019-02-18T02:36:21.352Z,79.88
2019-02-18T02:37:21.300Z,80.09
2019-02-18T02:38:21.293Z,80.19
2019-02-18T02:39:21.294Z,79.78
2019-02-18T02:40:21.310Z,79.88
2019-02-18T02:41:21.263Z,80.09
2019-02-18T02:42:21.269Z,79.88
2019-02-18T02:43:21.239Z,79.68
2019-02-18T02:44:21.224Z,79.68
2019-02-18T02:45:21.244Z,79.88
2019-02-18T02:46:21.204Z,79.68
2019-02-18T02:47:21.199Z,80.02
2019-02-18T02:48:21.185Z,79.99
2019-02-18T02:49:21.197Z,79.68
2019-02-18T02:50:21.183Z,79.82
2019-02-18T02:51:21.189Z,79.78
2019-02-18T02:52:21.154Z,79.99
2019-02-18T02:53:21.134Z,79.68
2019-02-18T02:54:21.138Z,80.02
2019-02-18T02:55:21.116Z,79.92
2019-02-18T02:56:21.152Z,79.92
2019-02-18T02:57:21.091Z,80.13
2019-02-18T02:58:21.107Z,79.92
2019-02-18T02:59:21.072Z,80.13
2019-02-18T03:00:21.064Z,79.92
2019-02-18T03:01:21.049Z,80.23
2019-02-18T03:02:21.057Z,80.23
2019-02-18T03:03:21.094Z,80.23
2019-02-18T03:04:21.011Z,80.23
2019-02-18T03:05:21.023Z,80.23
2019-02-18T03:06:20.997Z,80.33
2019-02-18T03:07:21.013Z,80.23
2019-02-18T03:08:21.161Z,80.02
2019-02-18T03:09:20.969Z,79.92
2019-02-18T03:10:20.982Z,79.68
2019-02-18T03:11:20.944Z,79.37
2019-02-18T03:12:20.963Z,78.85
2019-02-18T03:13:20.963Z,78.54
2019-02-18T03:14:20.911Z,78.02
2019-02-18T03:15:20.914Z,77.98
2019-02-18T03:16:20.905Z,77.67
2019-02-18T03:17:20.938Z,76.95
2019-02-18T03:18:20.888Z,77.26
2019-02-18T03:19:20.869Z,76.53
2019-02-18T03:20:20.863Z,76.19
2019-02-18T03:21:20.843Z,75.50
2019-02-18T03:22:20.828Z,75.46
2019-02-18T03:23:20.842Z,75.46
2019-02-18T03:24:20.807Z,75.78
2019-02-18T03:25:20.803Z,75.36
2019-02-18T03:26:20.789Z,75.46
2019-02-18T03:27:20.775Z,75.26
2019-02-18T03:28:20.789Z,74.74
2019-02-18T03:29:20.788Z,74.40
2019-02-18T03:30:20.741Z,73.46
2019-02-18T03:31:20.736Z,73.57
2019-02-18T03:32:20.748Z,73.67
2019-02-18T03:33:20.760Z,73.46
2019-02-18T03:34:20.726Z,73.77
2019-02-18T03:35:20.686Z,73.46
2019-02-18T03:36:20.686Z,73.46
2019-02-18T03:37:20.667Z,73.25
2019-02-18T03:38:30.873Z,72.94
2019-02-18T03:39:21.688Z,73.15
2019-02-18T03:40:20.662Z,73.15
2019-02-18T03:41:20.627Z,73.25
2019-02-18T03:42:20.613Z,72.85
2019-02-18T03:43:20.614Z,72.53
2019-02-18T03:44:20.621Z,72.39
2019-02-18T03:45:20.607Z,72.81
2019-02-18T03:46:20.572Z,72.39
2019-02-18T03:47:20.571Z,72.08
2019-02-18T03:48:20.553Z,71.98
2019-02-18T03:49:20.542Z,71.84
2019-02-18T03:50:20.534Z,71.98
2019-02-18T03:51:20.560Z,71.33
2019-02-18T03:52:20.515Z,71.36
2019-02-18T03:53:20.509Z,70.92
2019-02-18T03:54:20.494Z,72.05
2019-02-18T03:55:20.483Z,71.12
2019-02-18T03:56:20.475Z,70.71
2019-02-18T03:57:20.479Z,70.29
2019-02-18T03:58:20.472Z,69.88
2019-02-18T03:59:20.485Z,70.37
2019-02-18T04:00:20.429Z,69.74
2019-02-18T04:01:20.423Z,70.26
2019-02-18T04:02:20.410Z,69.74
2019-02-18T04:03:20.419Z,69.54
2019-02-18T04:04:20.388Z,68.92
2019-02-18T04:05:20.371Z,69.12
2019-02-18T04:06:20.369Z,69.12
2019-02-18T04:07:20.413Z,69.02
2019-02-18T04:08:20.446Z,68.92
2019-02-18T04:09:20.346Z,68.92
2019-02-18T04:10:20.331Z,69.33
2019-02-18T04:11:20.309Z,69.23
2019-02-18T04:12:20.315Z,69.02
2019-02-18T04:13:20.298Z,69.85
2019-02-18T04:14:20.306Z,69.54
2019-02-18T04:15:20.277Z,69.54
2019-02-18T04:16:20.270Z,69.74
2019-02-18T04:17:20.245Z,70.19
2019-02-18T04:18:20.239Z,70.29
2019-02-18T04:19:20.233Z,70.09
2019-02-18T04:20:20.242Z,70.71
2019-02-18T04:21:20.209Z,70.92
2019-02-18T04:22:20.217Z,70.95
2019-02-18T04:23:20.187Z,71.15
2019-02-18T04:24:20.191Z,71.36
2019-02-18T04:25:20.195Z,71.57
2019-02-18T04:26:20.200Z,72.12
2019-02-18T04:27:20.156Z,72.85
2019-02-18T04:28:20.144Z,72.60
2019-02-18T04:29:20.122Z,72.39
2019-02-18T04:30:20.120Z,72.85
2019-02-18T04:31:20.124Z,73.05
2019-02-18T04:32:20.101Z,73.25
2019-02-18T04:33:20.084Z,73.46
2019-02-18T04:34:20.064Z,73.98
2019-02-18T04:35:20.066Z,73.67
2019-02-18T04:36:20.078Z,73.60
2019-02-18T04:37:20.049Z,73.39
2019-02-18T04:38:20.032Z,74.43
2019-02-18T04:39:20.020Z,74.74
2019-02-18T04:40:20.019Z,74.63
2019-02-18T04:41:19.997Z,75.22
2019-02-18T04:42:20.009Z,74.84
2019-02-18T04:43:19.995Z,75.05
2019-02-18T04:44:19.968Z,75.05
2019-02-18T04:45:19.964Z,75.15
2019-02-18T04:46:19.977Z,74.74
2019-02-18T04:47:19.939Z,74.74
2019-02-18T04:48:19.977Z,74.63
2019-02-18T04:49:19.913Z,74.71
2019-02-18T04:50:19.914Z,73.71
2019-02-18T04:51:19.890Z,73.60
2019-02-18T04:52:19.876Z,73.91
2019-02-18T04:53:19.870Z,73.71
2019-02-18T04:54:19.873Z,73.60
2019-02-18T04:55:19.846Z,73.08
2019-02-18T04:56:19.848Z,73.19
2019-02-18T04:57:19.831Z,73.08
2019-02-18T04:58:19.815Z,72.53
2019-02-18T04:59:19.837Z,72.53
2019-02-18T05:00:19.797Z,72.53
2019-02-18T05:01:19.799Z,73.15
2019-02-18T05:02:19.816Z,72.02
2019-02-18T05:03:19.786Z,71.81
2019-02-18T05:04:19.806Z,71.26
2019-02-18T05:05:19.790Z,71.47
2019-02-18T05:06:19.748Z,70.67
2019-02-18T05:07:19.725Z,70.95
2019-02-18T05:08:19.706Z,70.74
2019-02-18T05:09:19.706Z,70.43
2019-02-18T05:10:19.718Z,70.29
2019-02-18T05:11:19.695Z,70.22
2019-02-18T05:12:19.666Z,70.09
2019-02-18T05:13:19.663Z,70.01
2019-02-18T05:14:19.649Z,70.22
2019-02-18T05:15:19.649Z,70.32
2019-02-18T05:16:19.658Z,70.12
2019-02-18T05:17:19.613Z,70.22
2019-02-18T05:18:19.606Z,69.92
2019-02-18T05:19:19.604Z,70.12
2019-02-18T05:20:19.582Z,70.40
2019-02-18T05:21:19.598Z,69.81
2019-02-18T05:22:19.596Z,70.19
2019-02-18T05:23:19.552Z,69.57
2019-02-18T05:24:19.549Z,69.57
2019-02-18T05:25:19.552Z,69.78
2019-02-18T05:26:19.541Z,68.95
2019-02-18T05:27:19.527Z,69.06
2019-02-18T05:28:19.526Z,68.85
2019-02-18T05:29:19.490Z,69.67
2019-02-18T05:30:19.489Z,69.47
2019-02-18T05:31:19.463Z,69.57
2019-02-18T05:32:19.468Z,69.67
2019-02-18T05:33:19.483Z,69.26
2019-02-18T05:34:19.435Z,69.78
2019-02-18T05:35:19.488Z,69.57
2019-02-18T05:36:19.422Z,69.57
2019-02-18T05:37:19.408Z,69.88
2019-02-18T05:38:19.396Z,69.50
2019-02-18T05:39:19.416Z,69.60
2019-02-18T05:40:19.378Z,69.81
2019-02-18T05:41:19.364Z,69.60
2019-02-18T05:42:19.377Z,69.78
2019-02-18T05:43:19.349Z,69.78
2019-02-18T05:44:19.359Z,69.47
2019-02-18T05:45:19.320Z,69.81
2019-02-18T05:46:19.356Z,69.71
2019-02-18T05:47:19.302Z,70.43
2019-02-18T05:48:19.302Z,69.92
2019-02-18T05:49:19.291Z,70.64
2019-02-18T05:50:19.317Z,70.43
2019-02-18T05:51:19.252Z,70.22
2019-02-18T05:52:19.246Z,70.12
2019-02-18T05:53:19.247Z,70.05
2019-02-18T05:54:19.226Z,70.47
2019-02-18T05:55:19.350Z,70.74
2019-02-18T05:56:19.258Z,70.87
2019-02-18T05:57:19.266Z,70.77
2019-02-18T05:58:19.183Z,70.87
2019-02-18T05:59:19.188Z,71.19
2019-02-18T06:00:19.401Z,71.50
2019-02-18T06:01:19.162Z,71.43
2019-02-18T06:02:19.177Z,72.25
2019-02-18T06:03:19.127Z,72.56
2019-02-18T06:04:19.140Z,72.25
2019-02-18T06:05:19.100Z,73.19
2019-02-18T06:06:19.125Z,72.36
2019-02-18T06:07:19.125Z,72.56
2019-02-18T06:08:19.093Z,73.19
2019-02-18T06:09:29.027Z,73.63
2019-02-18T06:10:20.055Z,73.53
2019-02-18T06:11:19.126Z,73.60
2019-02-18T06:12:19.141Z,73.74
2019-02-18T06:13:19.075Z,74.67
2019-02-18T06:14:19.045Z,74.77
2019-02-18T06:15:18.999Z,74.98
2019-02-18T06:16:19.002Z,75.19
2019-02-18T06:17:18.986Z,75.29
2019-02-18T06:18:19.005Z,75.09
2019-02-18T06:19:18.969Z,75.32
2019-02-18T06:20:19.028Z,75.95
2019-02-18T06:21:19.056Z,75.84
2019-02-18T06:22:19.024Z,75.74
2019-02-18T06:23:18.920Z,75.74
2019-02-18T06:24:18.962Z,75.84
2019-02-18T06:25:18.965Z,75.95
2019-02-18T06:26:18.993Z,75.84
2019-02-18T06:27:18.933Z,75.53
2019-02-18T06:28:18.882Z,75.63
2019-02-18T06:29:18.945Z,75.63
2019-02-18T06:30:18.892Z,75.53
2019-02-18T06:31:18.850Z,75.84
2019-02-18T06:32:18.828Z,76.15
2019-02-18T06:33:18.819Z,76.78
2019-02-18T06:34:18.906Z,76.15
2019-02-18T06:35:18.836Z,76.98
2019-02-18T06:36:19.009Z,76.29
2019-02-18T06:37:18.969Z,77.23
2019-02-18T06:38:18.805Z,76.88
2019-02-18T06:39:18.776Z,76.15
2019-02-18T06:40:18.951Z,76.29
2019-02-18T06:41:18.730Z,76.98
2019-02-18T06:42:18.730Z,76.19
2019-02-18T06:43:18.736Z,76.19
2019-02-18T06:44:18.825Z,76.15
2019-02-18T06:45:18.687Z,76.36
2019-02-18T06:46:18.728Z,77.19
2019-02-18T06:47:18.740Z,76.46
2019-02-18T06:48:18.675Z,76.78
2019-02-18T06:49:18.668Z,76.15
2019-02-18T06:50:18.632Z,76.36
2019-02-18T06:51:18.678Z,76.67
2019-02-18T06:52:18.616Z,76.98
2019-02-18T06:53:18.599Z,76.81
2019-02-18T06:54:18.599Z,76.40
2019-02-18T06:55:18.576Z,76.98
2019-02-18T06:56:18.609Z,77.23
2019-02-18T06:57:18.575Z,76.50
2019-02-18T06:58:18.560Z,77.33
2019-02-18T06:59:18.580Z,77.23
2019-02-18T07:00:18.523Z,76.81
2019-02-18T07:01:18.518Z,76.57
2019-02-18T07:02:18.590Z,77.09
2019-02-18T07:03:18.714Z,77.29
2019-02-18T07:04:18.629Z,76.98
2019-02-18T07:05:18.472Z,77.19
2019-02-18T07:06:18.479Z,77.29
2019-02-18T07:07:18.487Z,77.09
2019-02-18T07:08:18.487Z,77.29
2019-02-18T07:09:18.441Z,76.46
2019-02-18T07:10:18.474Z,76.67
2019-02-18T07:11:18.410Z,77.29
2019-02-18T07:12:18.431Z,76.88
2019-02-18T07:13:18.391Z,76.78
2019-02-18T07:14:18.417Z,76.98
2019-02-18T07:15:18.410Z,76.46
2019-02-18T07:16:18.380Z,76.67
2019-02-18T07:17:18.363Z,76.57
2019-02-18T07:18:18.367Z,76.57
2019-02-18T07:19:18.477Z,77.09
2019-02-18T07:20:18.312Z,76.98
2019-02-18T07:21:18.363Z,76.15
2019-02-18T07:22:18.325Z,75.84
2019-02-18T07:23:18.295Z,75.84
2019-02-18T07:24:18.317Z,75.95
2019-02-18T07:25:18.612Z,76.26
2019-02-18T07:26:18.249Z,75.53
2019-02-18T07:27:18.287Z,76.26
2019-02-18T07:28:18.250Z,75.53
2019-02-18T07:29:18.268Z,75.53
2019-02-18T07:30:18.260Z,75.53
2019-02-18T07:31:18.245Z,75.53
2019-02-18T07:32:18.185Z,75.53
2019-02-18T07:33:18.199Z,75.43
2019-02-18T07:34:18.182Z,75.53
2019-02-18T07:35:18.193Z,75.63
2019-02-18T07:36:18.378Z,76.15
2019-02-18T07:37:18.162Z,76.05
2019-02-18T07:38:18.148Z,75.95
2019-02-18T07:39:18.211Z,75.53
2019-02-18T07:40:18.104Z,75.53
2019-02-18T07:41:18.139Z,75.63
2019-02-18T07:42:18.185Z,75.43
2019-02-18T07:43:18.076Z,75.53
2019-02-18T07:44:18.059Z,75.40
2019-02-18T07:45:18.354Z,75.74
2019-02-18T07:46:18.295Z,75.81
2019-02-18T07:47:18.179Z,75.92
2019-02-18T07:48:18.279Z,75.81
2019-02-18T07:49:18.194Z,74.98
2019-02-18T07:50:20.750Z,75.92
2019-02-18T07:51:18.090Z,75.71
2019-02-18T07:52:18.069Z,75.40
2019-02-18T07:53:18.038Z,75.40
2019-02-18T07:54:17.964Z,74.98
2019-02-18T07:55:17.984Z,74.88
2019-02-18T07:56:17.963Z,74.84
2019-02-18T07:57:17.951Z,74.74
2019-02-18T07:58:17.965Z,74.95
2019-02-18T07:59:17.923Z,74.53
2019-02-18T08:00:17.900Z,74.32
2019-02-18T08:01:18.011Z,74.12
2019-02-18T08:02:18.197Z,73.60
2019-02-18T08:03:17.981Z,73.88
2019-02-18T08:04:17.906Z,73.77
2019-02-18T08:05:18.009Z,73.88
2019-02-18T08:06:17.929Z,73.67
2019-02-18T08:07:17.907Z,73.36
2019-02-18T08:08:18.026Z,73.46
2019-02-18T08:09:17.847Z,73.22
2019-02-18T08:10:17.854Z,72.81
2019-02-18T08:11:17.804Z,73.12
2019-02-18T08:12:17.774Z,72.94
2019-02-18T08:13:17.766Z,72.91
2019-02-18T08:14:17.775Z,73.22
2019-02-18T08:15:17.768Z,73.12
2019-02-18T08:16:17.739Z,73.54
2019-02-18T08:17:17.767Z,73.64
2019-02-18T08:18:17.707Z,73.57
2019-02-18T08:19:17.750Z,73.57
2019-02-18T08:20:17.686Z,73.57
2019-02-18T08:21:17.683Z,73.57
2019-02-18T08:22:17.661Z,73.88
2019-02-18T08:23:17.680Z,73.67
2019-02-18T08:24:17.690Z,73.77
2019-02-18T08:25:17.635Z,73.57
2019-02-18T08:26:17.639Z,73.43
2019-02-18T08:27:18.355Z,72.94
2019-02-18T08:28:17.934Z,72.91
2019-02-18T08:29:17.633Z,72.39
2019-02-18T08:30:17.621Z,71.98
2019-02-18T08:31:17.733Z,72.19
2019-02-18T08:32:17.570Z,71.95
2019-02-18T08:33:17.551Z,71.78
2019-02-18T08:34:17.586Z,71.43
2019-02-18T08:35:17.539Z,70.92
2019-02-18T08:36:17.547Z,71.53
2019-02-18T08:37:17.505Z,70.81
2019-02-18T08:38:17.636Z,70.16
2019-02-18T08:39:17.614Z,70.57
2019-02-18T08:40:22.421Z,69.54
2019-02-18T08:41:18.519Z,69.40
2019-02-18T08:42:17.480Z,68.78
2019-02-18T08:43:17.441Z,69.33
2019-02-18T08:44:17.431Z,68.48
2019-02-18T08:45:17.427Z,67.54
2019-02-18T08:46:17.485Z,67.21
2019-02-18T08:47:17.450Z,67.10
2019-02-18T08:48:17.388Z,66.45
2019-02-18T08:49:17.416Z,65.83
2019-02-18T08:50:17.362Z,65.73
2019-02-18T08:51:17.367Z,64.59
2019-02-18T08:52:17.388Z,64.56
2019-02-18T08:53:17.451Z,64.04
2019-02-18T08:54:17.330Z,64.43
2019-02-18T08:55:17.321Z,63.84
2019-02-18T08:56:17.311Z,63.53
2019-02-18T08:57:17.299Z,63.19
2019-02-18T08:58:17.286Z,63.22
2019-02-18T08:59:17.324Z,63.29
2019-02-18T09:00:17.325Z,62.57
2019-02-18T09:01:17.247Z,61.96
2019-02-18T09:02:17.238Z,62.57
2019-02-18T09:03:17.294Z,62.68
2019-02-18T09:04:17.220Z,62.16
2019-02-18T09:05:17.360Z,62.57
2019-02-18T09:06:17.286Z,62.68
2019-02-18T09:07:17.180Z,62.47
2019-02-18T09:08:17.197Z,62.85
2019-02-18T09:09:17.165Z,62.44
2019-02-18T09:10:17.213Z,62.65
2019-02-18T09:11:17.816Z,61.61
2019-02-18T09:12:17.134Z,61.82
2019-02-18T09:13:17.128Z,61.61
2019-02-18T09:14:17.131Z,61.28
2019-02-18T09:15:17.110Z,61.59
2019-02-18T09:16:17.091Z,61.59
2019-02-18T09:17:17.121Z,61.38
2019-02-18T09:18:17.065Z,61.38
2019-02-18T09:19:17.064Z,61.80
2019-02-18T09:20:17.056Z,61.59
2019-02-18T09:21:17.030Z,61.38
2019-02-18T09:22:17.023Z,60.87
2019-02-18T09:23:17.034Z,61.18
2019-02-18T09:24:17.015Z,61.18
2019-02-18T09:25:17.018Z,61.15
2019-02-18T09:26:16.980Z,60.84
2019-02-18T09:27:16.995Z,61.77
2019-02-18T09:28:17.043Z,61.05
2019-02-18T09:29:17.029Z,61.25
2019-02-18T09:30:16.960Z,61.98
2019-02-18T09:31:16.957Z,61.25
2019-02-18T09:32:16.961Z,61.15
2019-02-18T09:33:17.029Z,61.05
2019-02-18T09:34:16.915Z,61.35
2019-02-18T09:35:16.885Z,61.56
2019-02-18T09:36:16.891Z,60.91
2019-02-18T09:37:16.882Z,61.33
2019-02-18T09:38:24.323Z,60.74
2019-02-18T09:39:17.899Z,60.91
2019-02-18T09:40:16.826Z,61.77
2019-02-18T09:41:16.821Z,61.77
2019-02-18T09:42:16.809Z,61.98
2019-02-18T09:43:16.798Z,61.87
2019-02-18T09:44:16.796Z,61.63
2019-02-18T09:45:16.806Z,62.35
2019-02-18T09:46:16.761Z,62.77
2019-02-18T09:47:16.762Z,61.94
2019-02-18T09:48:16.744Z,62.46
2019-02-18T09:49:16.770Z,62.97
2019-02-18T09:50:16.754Z,63.79
2019-02-18T09:51:16.716Z,63.69
2019-02-18T09:52:16.697Z,64.24
2019-02-18T09:53:16.701Z,63.52
2019-02-18T09:54:16.688Z,63.42
2019-02-18T09:55:16.680Z,63.52
2019-02-18T09:56:16.803Z,63.07
2019-02-18T09:57:16.648Z,63.07
2019-02-18T09:58:16.639Z,62.87
2019-02-18T09:59:16.632Z,62.56
2019-02-18T10:00:16.625Z,62.77
2019-02-18T10:01:16.625Z,61.84
2019-02-18T10:02:16.612Z,63.05
2019-02-18T10:03:16.585Z,62.33
2019-02-18T10:04:16.581Z,61.81
2019-02-18T10:05:16.559Z,62.95
2019-02-18T10:06:16.568Z,63.56
2019-02-18T10:07:16.647Z,63.46
2019-02-18T10:08:16.554Z,64.18
2019-02-18T10:09:16.535Z,64.18
2019-02-18T10:10:16.503Z,63.35
2019-02-18T10:11:16.585Z,63.35
2019-02-18T10:12:18.703Z,63.56
2019-02-18T10:13:16.514Z,64.07
2019-02-18T10:14:16.466Z,63.87
2019-02-18T10:15:16.455Z,64.21
2019-02-18T10:16:16.458Z,63.67
2019-02-18T10:17:16.428Z,63.90
2019-02-18T10:18:16.416Z,64.21
2019-02-18T10:19:16.446Z,63.35
2019-02-18T10:20:16.410Z,63.46
2019-02-18T10:21:16.395Z,63.05
2019-02-18T10:22:16.396Z,63.46
2019-02-18T10:23:16.375Z,63.76
2019-02-18T10:24:16.396Z,63.46
2019-02-18T10:25:16.347Z,62.95
2019-02-18T10:26:16.339Z,63.53
2019-02-18T10:27:16.345Z,62.30
2019-02-18T10:28:16.351Z,62.71
2019-02-18T10:29:16.346Z,62.99
2019-02-18T10:30:16.306Z,62.81
2019-02-18T10:31:16.895Z,62.58
2019-02-18T10:32:16.319Z,62.78
2019-02-18T10:33:16.267Z,63.12
2019-02-18T10:34:16.250Z,62.88
2019-02-18T10:35:16.294Z,61.47
2019-02-18T10:36:16.249Z,63.09
2019-02-18T10:37:16.218Z,63.09
2019-02-18T10:38:16.196Z,63.60
2019-02-18T10:39:16.188Z,64.01
2019-02-18T10:40:16.190Z,63.40
2019-02-18T10:41:16.176Z,63.47
2019-02-18T10:42:16.149Z,63.37
2019-02-18T10:43:16.140Z,63.27
2019-02-18T10:44:16.142Z,63.98
2019-02-18T10:45:16.183Z,63.78
2019-02-18T10:46:16.155Z,63.68
2019-02-18T10:47:16.160Z,63.57
2019-02-18T10:48:16.119Z,63.37
2019-02-18T10:49:19.738Z,63.57
2019-02-18T10:50:16.080Z,62.96
2019-02-18T10:51:16.056Z,62.83
2019-02-18T10:52:16.088Z,61.70
2019-02-18T10:53:16.049Z,63.06
2019-02-18T10:54:16.019Z,62.83
2019-02-18T10:55:16.008Z,62.93
2019-02-18T10:56:16.003Z,62.01
2019-02-18T10:57:16.000Z,63.44
2019-02-18T10:58:16.007Z,63.24
2019-02-18T10:59:15.979Z,62.90
2019-02-18T11:00:16.026Z,63.34
2019-02-18T11:01:15.965Z,63.51
2019-02-18T11:02:15.957Z,63.00
2019-02-18T11:03:15.985Z,62.29
2019-02-18T11:04:15.961Z,62.90
2019-02-18T11:05:15.907Z,62.49
2019-02-18T11:06:15.894Z,62.90
2019-02-18T11:07:15.890Z,62.36
2019-02-18T11:08:15.900Z,61.64
2019-02-18T11:09:15.858Z,61.71
2019-02-18T11:10:15.899Z,61.20
2019-02-18T11:11:17.227Z,61.30
2019-02-18T11:12:15.844Z,61.41
2019-02-18T11:13:15.818Z,61.10
2019-02-18T11:14:15.848Z,61.20
2019-02-18T11:15:15.803Z,61.00
2019-02-18T11:16:15.819Z,61.41
2019-02-18T11:17:15.763Z,61.51
2019-02-18T11:18:15.765Z,60.97
2019-02-18T11:19:17.611Z,60.86
2019-02-18T11:20:15.778Z,60.22
2019-02-18T11:21:15.735Z,60.94
2019-02-18T11:22:15.738Z,60.84
2019-02-18T11:23:15.713Z,61.18
2019-02-18T11:24:15.698Z,60.97
2019-02-18T11:25:15.723Z,60.66
2019-02-18T11:26:15.681Z,60.12
2019-02-18T11:27:15.722Z,60.74
2019-02-18T11:28:15.669Z,60.53
2019-02-18T11:29:15.673Z,59.81
2019-02-18T11:30:15.667Z,59.81
2019-02-18T11:31:15.705Z,60.12
2019-02-18T11:32:15.631Z,60.10
2019-02-18T11:33:15.609Z,59.58
2019-02-18T11:34:15.652Z,59.89
2019-02-18T11:35:15.589Z,60.60
2019-02-18T11:36:15.597Z,60.10
2019-02-18T11:37:15.561Z,59.99
2019-02-18T11:38:15.539Z,60.50
2019-02-18T11:39:15.524Z,59.89
2019-02-18T11:40:15.574Z,61.32
2019-02-18T11:41:15.511Z,59.78
2019-02-18T11:42:15.520Z,59.76
2019-02-18T11:43:15.508Z,59.66
2019-02-18T11:44:15.500Z,58.94
2019-02-18T11:45:15.475Z,59.83
2019-02-18T11:46:15.514Z,60.03
2019-02-18T11:47:15.459Z,59.12
2019-02-18T11:48:15.455Z,58.81
2019-02-18T11:49:15.434Z,59.63
2019-02-18T11:50:15.488Z,58.70
2019-02-18T11:51:15.395Z,58.27
2019-02-18T11:52:15.432Z,57.76
2019-02-18T11:53:15.443Z,57.63
2019-02-18T11:54:15.388Z,57.73
2019-02-18T11:55:15.481Z,57.53
2019-02-18T11:56:15.385Z,58.65
2019-02-18T11:57:15.390Z,57.56
2019-02-18T11:58:15.322Z,57.53
2019-02-18T11:59:24.007Z,57.73
2019-02-18T12:00:16.325Z,56.68
2019-02-18T12:01:15.305Z,57.29
2019-02-18T12:02:15.315Z,58.01
2019-02-18T12:03:15.274Z,57.50
2019-02-18T12:04:15.284Z,57.60
2019-02-18T12:05:15.269Z,56.56
2019-02-18T12:06:15.272Z,57.70
2019-02-18T12:07:15.262Z,57.48
2019-02-18T12:08:15.230Z,58.19
2019-02-18T12:09:17.749Z,56.25
2019-02-18T12:10:15.194Z,56.56
2019-02-18T12:11:15.207Z,56.56
2019-02-18T12:12:15.199Z,58.06
2019-02-18T12:13:15.190Z,56.66
2019-02-18T12:14:15.220Z,56.02
2019-02-18T12:15:15.145Z,56.84
2019-02-18T12:16:15.202Z,55.89
2019-02-18T12:17:20.584Z,56.30
2019-02-18T12:18:16.206Z,55.79
2019-02-18T12:19:15.120Z,54.77
2019-02-18T12:20:15.108Z,55.87
2019-02-18T12:21:15.095Z,54.74
2019-02-18T12:22:15.083Z,54.51
2019-02-18T12:23:15.067Z,56.35
2019-02-18T12:24:15.063Z,56.58
2019-02-18T12:25:15.033Z,54.41
2019-02-18T12:26:15.051Z,54.82
2019-02-18T12:27:15.032Z,54.51
2019-02-18T12:28:15.094Z,54.92
2019-02-18T12:29:14.992Z,55.53
2019-02-18T12:30:14.998Z,54.18
2019-02-18T12:31:14.975Z,52.86
2019-02-18T12:32:14.995Z,52.55
2019-02-18T12:33:14.982Z,52.22
2019-02-18T12:34:14.951Z,53.65
2019-02-18T12:35:14.924Z,53.44
2019-02-18T12:36:14.937Z,50.70
2019-02-18T12:37:14.931Z,51.48
2019-02-18T12:38:17.332Z,52.20
2019-02-18T12:39:14.905Z,51.79
2019-02-18T12:40:14.868Z,50.04
2019-02-18T12:41:14.877Z,49.22
2019-02-18T12:42:14.861Z,50.04
2019-02-18T12:43:14.928Z,49.73
2019-02-18T12:44:14.829Z,49.91
2019-02-18T12:45:14.825Z,50.85
2019-02-18T12:46:16.098Z,48.92
2019-02-18T12:47:14.803Z,48.51
2019-02-18T12:48:14.806Z,48.39
2019-02-18T12:49:14.808Z,47.67
2019-02-18T12:50:14.777Z,47.06
2019-02-18T12:51:14.753Z,46.97
2019-02-18T12:52:14.744Z,46.03